Binga Airport


Codes: FZGE/
Name: Binga Airport
City: Binga
Country: Congo [DRC]
Elevation: 1476 ft.

Photos at Binga Airport


   Photos courtesy of SpottingLog. You can add your own sightings and photos by signing up for a free trial today.



No photos found.

Weather at Binga Airport


Time (UTC)DescriptionTempratureWindCloud coverageVisibilityPressureHumidity
13-Jun-2024 00:00Overcast Clouds22°C2 mph, SE99%10000m1013hPa89%
13-Jun-2024 03:00Overcast Clouds22°C2 mph, SE93%10000m1013hPa90%
13-Jun-2024 06:00Overcast Clouds24°C2 mph, NE89%10000m1014hPa81%
13-Jun-2024 09:00Few Clouds33°C2 mph, E23%10000m1013hPa43%
13-Jun-2024 12:00Few Clouds36°C4 mph, SE19%10000m1009hPa33%
13-Jun-2024 15:00Broken Clouds33°C2 mph, SE80%10000m1007hPa42%
13-Jun-2024 18:00Broken Clouds27°C2 mph, NE76%10000m1010hPa64%
13-Jun-2024 21:00Broken Clouds25°C2 mph, N68%10000m1012hPa74%
14-Jun-2024 00:00Broken Clouds24°C0 mph, NE60%10000m1011hPa79%
14-Jun-2024 03:00Scattered Clouds23°C2 mph, NE34%10000m1011hPa83%
14-Jun-2024 06:00Scattered Clouds25°C2 mph, E28%10000m1013hPa71%
14-Jun-2024 09:00Clear Sky34°C2 mph, SE10%10000m1012hPa40%
14-Jun-2024 12:00Few Clouds37°C4 mph, SE14%10000m1008hPa30%
14-Jun-2024 15:00Overcast Clouds33°C2 mph, SE94%10000m1006hPa46%
14-Jun-2024 18:00Light Rain26°C2 mph, E57%10000m1008hPa67%
14-Jun-2024 21:00Light Rain24°C2 mph, W32%10000m1010hPa79%
15-Jun-2024 00:00Light Rain24°C2 mph, NW66%10000m1009hPa85%
15-Jun-2024 03:00Light Rain22°C2 mph, NE37%10000m1010hPa94%
15-Jun-2024 06:00Scattered Clouds25°C2 mph, NE41%10000m1011hPa81%
15-Jun-2024 09:00Broken Clouds33°C4 mph, NE57%10000m1010hPa45%
15-Jun-2024 12:00Broken Clouds35°C2 mph, E61%10000m1007hPa38%
15-Jun-2024 15:00Broken Clouds33°C4 mph, N60%10000m1005hPa46%
15-Jun-2024 18:00Moderate Rain23°C4 mph, SE62%2313m1009hPa94%
15-Jun-2024 21:00Heavy Intensity Rain23°C2 mph, W100%10000m1011hPa99%
16-Jun-2024 00:00Light Rain23°C0 mph, W100%10000m1011hPa98%
16-Jun-2024 03:00Light Rain22°C4 mph, W100%10000m1010hPa98%
16-Jun-2024 06:00Overcast Clouds23°C2 mph, N100%10000m1012hPa95%
16-Jun-2024 09:00Overcast Clouds29°C2 mph, NW99%10000m1012hPa65%
16-Jun-2024 12:00Overcast Clouds31°C2 mph, NW92%10000m1009hPa53%
16-Jun-2024 15:00Light Rain27°C4 mph, S71%10000m1008hPa74%
16-Jun-2024 18:00Moderate Rain22°C2 mph, NW79%10000m1010hPa98%
16-Jun-2024 21:00Light Rain22°C2 mph, W100%10000m1012hPa99%
17-Jun-2024 00:00Light Rain22°C2 mph, SW100%10000m1011hPa99%
17-Jun-2024 03:00Overcast Clouds22°C2 mph, SW91%10000m1011hPa99%
17-Jun-2024 06:00Broken Clouds23°C2 mph, NW81%10000m1013hPa96%
17-Jun-2024 09:00Overcast Clouds29°C2 mph, W87%10000m1013hPa64%
17-Jun-2024 12:00Overcast Clouds31°C2 mph, W93%10000m1010hPa52%
17-Jun-2024 15:00Overcast Clouds27°C2 mph, NE100%10000m1009hPa72%
17-Jun-2024 18:00Overcast Clouds24°C2 mph, SE97%10000m1010hPa84%
17-Jun-2024 21:00Light Rain23°C2 mph, SW67%10000m1012hPa90%